createdAt,value
2022-12-22T00:02:37.418Z,3.67
2022-12-22T00:05:42.863Z,3.66
2022-12-22T00:09:03.562Z,3.64
2022-12-22T00:11:56.434Z,3.61
2022-12-22T00:14:52.951Z,3.58
2022-12-22T00:18:08.546Z,3.51
2022-12-22T00:21:19.940Z,3.41
2022-12-22T00:24:16.446Z,3.41
2022-12-22T00:27:15.666Z,3.33
2022-12-22T00:30:12.415Z,3.22
2022-12-22T00:33:33.563Z,3.12
2022-12-22T00:36:45.200Z,3.01
2022-12-22T00:39:54.929Z,2.88
2022-12-22T00:42:45.349Z,2.79
2022-12-22T00:46:02.083Z,2.74
2022-12-22T00:49:02.039Z,2.67
2022-12-22T00:51:54.059Z,2.61
2022-12-22T00:54:46.727Z,2.56
2022-12-22T00:57:47.371Z,2.71
2022-12-22T01:01:00.377Z,2.93
2022-12-22T01:04:06.237Z,3.06
2022-12-22T01:07:08.951Z,3.17
2022-12-22T01:10:05.492Z,3.27
2022-12-22T01:12:58.588Z,3.39
2022-12-22T01:16:09.402Z,3.49
2022-12-22T01:19:02.392Z,3.58
2022-12-22T01:21:54.189Z,3.64
2022-12-22T01:24:52.960Z,3.68
2022-12-22T01:27:54.811Z,3.73
2022-12-22T01:30:47.739Z,3.76
2022-12-22T01:33:39.647Z,3.80
2022-12-22T01:36:32.653Z,3.82
2022-12-22T01:39:24.876Z,3.79
2022-12-22T01:42:42.067Z,3.74
2022-12-22T01:45:42.848Z,3.72
2022-12-22T01:48:35.932Z,3.74
2022-12-22T01:51:50.326Z,3.76
2022-12-22T01:54:39.875Z,3.74
2022-12-22T01:57:32.200Z,3.72
2022-12-22T02:00:32.246Z,3.72
2022-12-22T02:03:36.722Z,3.68
2022-12-22T02:06:46.618Z,3.59
2022-12-22T02:09:56.565Z,3.49
2022-12-22T02:13:00.105Z,3.43
2022-12-22T02:16:00.521Z,3.39
2022-12-22T02:19:05.631Z,3.34
2022-12-22T02:22:17.228Z,3.33
2022-12-22T02:25:26.265Z,3.36
2022-12-22T02:28:24.350Z,3.39
2022-12-22T02:31:21.799Z,3.40
2022-12-22T02:34:21.646Z,3.39
2022-12-22T02:37:19.223Z,3.36
2022-12-22T02:40:18.421Z,3.35
2022-12-22T02:43:25.464Z,3.35
2022-12-22T02:46:26.868Z,3.37
2022-12-22T02:49:22.381Z,3.37
2022-12-22T02:52:25.454Z,3.37
2022-12-22T02:55:18.375Z,3.37
2022-12-22T02:58:17.836Z,3.33
2022-12-22T03:01:09.900Z,3.31
2022-12-22T03:04:01.549Z,3.32
2022-12-22T03:06:55.478Z,3.33
2022-12-22T03:09:45.968Z,3.30
2022-12-22T03:12:35.803Z,3.29
2022-12-22T03:15:27.839Z,3.29
2022-12-22T03:18:23.115Z,3.29
2022-12-22T03:21:14.128Z,3.30
2022-12-22T03:24:18.588Z,3.32
2022-12-22T03:27:02.148Z,3.33
2022-12-22T03:29:40.404Z,3.32
2022-12-22T03:32:18.620Z,3.31
2022-12-22T03:34:53.662Z,3.30
2022-12-22T03:37:29.559Z,3.28
2022-12-22T03:40:05.436Z,3.27
2022-12-22T03:42:57.856Z,3.25
2022-12-22T03:45:50.408Z,3.24
2022-12-22T03:48:43.566Z,3.25
2022-12-22T03:51:20.320Z,3.28
2022-12-22T03:54:00.639Z,3.31
2022-12-22T03:56:34.733Z,3.36
2022-12-22T03:59:11.940Z,3.41
2022-12-22T04:01:47.518Z,3.45
2022-12-22T04:04:25.471Z,3.47
2022-12-22T04:07:01.006Z,3.49
2022-12-22T04:09:34.133Z,3.50
2022-12-22T04:12:39.962Z,3.51
2022-12-22T04:15:17.332Z,3.50
2022-12-22T04:17:54.777Z,3.51
2022-12-22T04:20:28.123Z,3.51
2022-12-22T04:23:04.695Z,3.51
2022-12-22T04:25:39.075Z,3.49
2022-12-22T04:28:11.717Z,3.47
2022-12-22T04:30:46.043Z,3.46
2022-12-22T04:33:21.422Z,3.45
2022-12-22T04:35:54.099Z,3.48
2022-12-22T04:38:29.344Z,3.50
2022-12-22T04:41:03.143Z,3.50
2022-12-22T04:43:46.134Z,3.48
2022-12-22T04:46:21.773Z,3.48
2022-12-22T04:49:00.610Z,3.49
2022-12-22T04:51:35.843Z,3.49
2022-12-22T04:54:10.264Z,3.51
2022-12-22T04:56:41.924Z,3.52
2022-12-22T04:59:16.655Z,3.55
2022-12-22T05:01:49.403Z,3.56
2022-12-22T05:04:30.252Z,3.57
2022-12-22T05:07:03.546Z,3.60
2022-12-22T05:09:58.571Z,3.63
2022-12-22T05:12:54.444Z,3.68
2022-12-22T05:15:29.543Z,3.72
2022-12-22T05:18:06.421Z,3.78
2022-12-22T05:20:43.939Z,3.82
2022-12-22T05:23:15.631Z,3.86
2022-12-22T05:25:50.919Z,3.89
2022-12-22T05:28:26.408Z,3.90
2022-12-22T05:31:06.313Z,3.92
2022-12-22T05:33:37.855Z,3.95
2022-12-22T05:36:16.099Z,4.00
2022-12-22T05:38:49.334Z,4.04
2022-12-22T05:41:25.395Z,4.09
2022-12-22T05:44:12.613Z,4.14
2022-12-22T05:46:46.425Z,4.22
2022-12-22T05:49:21.593Z,4.28
2022-12-22T05:52:13.691Z,4.35
2022-12-22T05:54:46.879Z,4.40
2022-12-22T05:57:43.628Z,4.45
2022-12-22T06:00:21.385Z,4.49
2022-12-22T06:02:53.126Z,4.52
2022-12-22T06:05:35.040Z,4.56
2022-12-22T06:08:07.531Z,4.60
2022-12-22T06:10:43.711Z,4.64
2022-12-22T06:13:14.800Z,4.66
2022-12-22T06:15:50.667Z,4.68
2022-12-22T06:18:25.508Z,4.73
2022-12-22T06:21:14.794Z,4.75
2022-12-22T06:23:52.169Z,4.75
2022-12-22T06:26:36.601Z,4.77
2022-12-22T06:29:10.024Z,4.77
2022-12-22T06:31:49.787Z,4.76
2022-12-22T06:34:21.851Z,4.77
2022-12-22T06:37:13.977Z,4.78
2022-12-22T06:39:50.511Z,4.79
2022-12-22T06:43:07.806Z,4.81
2022-12-22T06:45:42.012Z,4.83
2022-12-22T06:48:32.684Z,4.85
2022-12-22T06:51:32.036Z,4.87
2022-12-22T06:54:26.284Z,4.89
2022-12-22T06:56:58.870Z,4.91
2022-12-22T06:59:57.632Z,4.94
2022-12-22T07:02:49.957Z,4.95
2022-12-22T07:05:41.432Z,4.97
2022-12-22T07:08:32.446Z,4.97
2022-12-22T07:11:07.674Z,4.99
2022-12-22T07:13:38.554Z,5.00
2022-12-22T07:16:10.872Z,5.02
2022-12-22T07:18:43.024Z,5.03
2022-12-22T07:21:15.259Z,5.03
2022-12-22T07:23:46.468Z,5.04
2022-12-22T07:26:17.418Z,5.03
2022-12-22T07:28:49.665Z,5.02
2022-12-22T07:31:21.434Z,5.02
2022-12-22T07:34:06.225Z,5.03
2022-12-22T07:36:38.043Z,5.04
2022-12-22T07:39:09.651Z,5.05
2022-12-22T07:41:57.741Z,5.06
2022-12-22T07:44:30.614Z,5.07
2022-12-22T07:47:28.612Z,5.09
2022-12-22T07:50:28.656Z,5.11
2022-12-22T07:53:23.974Z,5.13
2022-12-22T07:56:19.012Z,5.15
2022-12-22T07:59:12.045Z,5.19
2022-12-22T08:01:45.733Z,5.21
2022-12-22T08:04:19.098Z,5.24
2022-12-22T08:06:53.010Z,5.28
2022-12-22T08:09:43.417Z,5.30
2022-12-22T08:12:13.884Z,5.32
2022-12-22T08:14:47.372Z,5.35
2022-12-22T08:17:17.875Z,5.39
2022-12-22T08:19:53.322Z,5.45
2022-12-22T08:22:31.562Z,5.49
2022-12-22T08:25:11.007Z,5.54
2022-12-22T08:27:49.012Z,5.60
2022-12-22T08:30:39.726Z,5.63
2022-12-22T08:33:18.472Z,5.67
2022-12-22T08:36:12.450Z,5.69
2022-12-22T08:38:58.756Z,5.72
2022-12-22T08:41:49.768Z,5.75
2022-12-22T08:44:21.984Z,5.80
2022-12-22T08:46:58.134Z,5.85
2022-12-22T08:49:38.793Z,5.91
2022-12-22T08:52:32.139Z,5.99
2022-12-22T08:55:04.014Z,6.08
2022-12-22T08:57:59.576Z,6.20
2022-12-22T09:00:50.440Z,6.36
2022-12-22T09:03:41.229Z,6.49
2022-12-22T09:06:12.847Z,6.58
2022-12-22T09:09:06.997Z,6.64
2022-12-22T09:11:51.454Z,6.71
2022-12-22T09:14:22.182Z,6.73
2022-12-22T09:17:12.684Z,6.74
2022-12-22T09:19:43.173Z,6.79
2022-12-22T09:22:15.439Z,6.83
2022-12-22T09:24:50.523Z,6.87
2022-12-22T09:27:20.948Z,6.91
2022-12-22T09:30:15.312Z,6.93
2022-12-22T09:32:47.941Z,6.90
2022-12-22T09:35:18.691Z,6.87
2022-12-22T09:38:20.539Z,6.83
2022-12-22T09:40:50.971Z,6.82
2022-12-22T09:43:43.218Z,6.81
2022-12-22T09:46:22.074Z,6.81
2022-12-22T09:48:53.972Z,6.81
2022-12-22T09:51:49.167Z,6.82
2022-12-22T09:54:19.670Z,6.85
2022-12-22T09:56:53.336Z,6.87
2022-12-22T09:59:44.805Z,6.90
2022-12-22T10:02:44.309Z,6.93
2022-12-22T10:05:28.631Z,6.95
2022-12-22T10:08:04.251Z,6.99
2022-12-22T10:11:00.547Z,7.03
2022-12-22T10:13:52.416Z,7.05
2022-12-22T10:16:26.329Z,7.06
2022-12-22T10:19:17.005Z,7.07
2022-12-22T10:21:50.434Z,7.06
2022-12-22T10:24:34.238Z,7.06
2022-12-22T10:27:17.794Z,7.06
2022-12-22T10:29:48.815Z,7.07
2022-12-22T10:32:40.884Z,7.06
2022-12-22T10:38:32.207Z,6.99
2022-12-22T10:41:26.232Z,6.95
2022-12-22T10:44:26.696Z,6.91
2022-12-22T10:47:20.510Z,6.86
2022-12-22T10:50:11.717Z,6.82
2022-12-22T10:52:44.747Z,6.79
2022-12-22T10:55:36.041Z,6.78
2022-12-22T10:58:29.880Z,6.77
2022-12-22T11:01:12.497Z,6.76
2022-12-22T11:04:22.799Z,6.75
2022-12-22T11:07:13.906Z,6.72
2022-12-22T11:10:09.983Z,6.70
2022-12-22T11:13:19.860Z,6.68
2022-12-22T11:16:21.938Z,6.66
2022-12-22T11:19:13.534Z,6.67
2022-12-22T11:22:14.018Z,6.66
2022-12-22T11:24:55.112Z,6.64
2022-12-22T11:28:10.534Z,6.60
2022-12-22T11:31:19.263Z,6.56
2022-12-22T11:34:04.480Z,6.53
2022-12-22T11:37:07.015Z,6.51
2022-12-22T11:40:06.077Z,6.50
2022-12-22T11:42:56.236Z,6.49
2022-12-22T11:45:50.155Z,6.50
2022-12-22T11:48:47.705Z,6.54
2022-12-22T11:51:31.087Z,6.63
2022-12-22T11:54:33.330Z,6.72
2022-12-22T11:57:13.544Z,6.80
2022-12-22T11:59:55.465Z,6.85
2022-12-22T12:02:58.832Z,6.89
2022-12-22T12:05:57.601Z,6.91
2022-12-22T12:09:06.762Z,6.95
2022-12-22T12:12:05.948Z,7.02
2022-12-22T12:14:46.709Z,7.11
2022-12-22T12:17:50.385Z,7.25
2022-12-22T12:20:45.755Z,7.41
2022-12-22T12:23:28.921Z,7.56
2022-12-22T12:26:09.085Z,7.65
2022-12-22T12:29:01.636Z,7.71
2022-12-22T12:31:39.033Z,7.75
2022-12-22T12:34:15.527Z,7.81
2022-12-22T12:36:55.837Z,7.85
2022-12-22T12:39:49.960Z,7.89
2022-12-22T12:42:36.293Z,7.96
2022-12-22T12:45:29.760Z,8.05
2022-12-22T12:48:40.633Z,8.12
2022-12-22T12:51:48.109Z,8.14
2022-12-22T12:54:42.007Z,8.17
2022-12-22T12:57:46.936Z,8.19
2022-12-22T13:00:49.707Z,8.23
2022-12-22T13:06:52.162Z,8.34
2022-12-22T13:12:42.474Z,9.22
2022-12-22T13:15:30.404Z,9.37
2022-12-22T13:18:03.075Z,9.28
2022-12-22T13:20:37.054Z,9.13
2022-12-22T13:23:15.977Z,9.02
2022-12-22T13:25:58.799Z,8.94
2022-12-22T13:28:34.300Z,8.92
2022-12-22T13:31:22.201Z,9.03
2022-12-22T13:34:08.491Z,8.88
2022-12-22T13:36:40.229Z,8.78
2022-12-22T13:39:17.198Z,8.71
2022-12-22T13:42:10.425Z,8.61
2022-12-22T13:45:03.442Z,8.53
2022-12-22T13:47:41.469Z,8.45
2022-12-22T13:50:20.589Z,8.39
2022-12-22T13:52:53.106Z,8.35
2022-12-22T13:55:31.730Z,8.33
2022-12-22T13:58:10.360Z,8.31
2022-12-22T14:00:41.910Z,8.27
2022-12-22T14:03:58.684Z,8.25
2022-12-22T14:06:31.195Z,8.24
2022-12-22T14:09:30.201Z,8.22
2022-12-22T14:12:08.800Z,8.21
2022-12-22T14:15:04.356Z,8.18
2022-12-22T14:17:44.741Z,8.19
2022-12-22T14:20:36.989Z,8.18
2022-12-22T14:23:32.286Z,8.17
2022-12-22T14:26:07.418Z,8.17
2022-12-22T14:28:59.641Z,8.14
2022-12-22T14:32:04.002Z,8.12
2022-12-22T14:34:37.838Z,8.09
2022-12-22T14:37:32.392Z,8.06
2022-12-22T14:40:05.980Z,8.06
2022-12-22T14:42:38.587Z,8.05
2022-12-22T14:45:35.852Z,8.04
2022-12-22T14:48:31.192Z,8.04
2022-12-22T14:51:23.216Z,8.01
2022-12-22T14:53:57.740Z,7.99
2022-12-22T14:56:29.614Z,7.98
2022-12-22T14:59:23.159Z,7.96
2022-12-22T15:02:04.319Z,7.94
2022-12-22T15:04:35.656Z,7.92
2022-12-22T15:08:03.346Z,7.90
2022-12-22T15:10:16.299Z,7.89
2022-12-22T15:12:48.627Z,7.87
2022-12-22T15:15:23.460Z,7.85
2022-12-22T15:17:55.657Z,7.83
2022-12-22T15:20:46.060Z,7.82
2022-12-22T15:23:38.243Z,7.80
2022-12-22T15:26:33.003Z,7.77
2022-12-22T15:29:11.537Z,7.75
2022-12-22T15:32:02.703Z,7.73
2022-12-22T15:34:37.036Z,7.73
2022-12-22T15:37:27.681Z,7.71
2022-12-22T15:40:04.051Z,7.70
2022-12-22T15:42:55.338Z,7.71
2022-12-22T15:45:53.510Z,7.71
2022-12-22T15:48:43.076Z,7.71
2022-12-22T15:51:22.002Z,7.70
2022-12-22T15:53:55.468Z,7.71
2022-12-22T15:56:47.211Z,7.72
2022-12-22T15:59:43.262Z,7.71
2022-12-22T16:02:23.271Z,7.72
2022-12-22T16:04:54.018Z,7.70
2022-12-22T16:07:24.906Z,7.70
2022-12-22T16:10:27.076Z,7.70
2022-12-22T16:13:21.526Z,7.71
2022-12-22T16:16:26.314Z,7.71
2022-12-22T16:19:23.122Z,7.70
2022-12-22T16:21:58.213Z,7.70
2022-12-22T16:24:38.387Z,7.70
2022-12-22T16:27:10.605Z,7.68
2022-12-22T16:29:56.816Z,7.68
2022-12-22T16:32:40.095Z,7.68
2022-12-22T16:35:30.521Z,7.68
2022-12-22T16:38:03.226Z,7.67
2022-12-22T16:40:42.545Z,7.65
2022-12-22T16:46:22.994Z,7.63
2022-12-22T16:48:59.854Z,7.62
2022-12-22T16:52:03.680Z,7.62
2022-12-22T16:54:52.464Z,7.63
2022-12-22T16:57:23.780Z,7.64
2022-12-22T16:59:56.571Z,7.66
2022-12-22T17:02:35.480Z,7.68
2022-12-22T17:05:24.810Z,7.70
2022-12-22T17:08:00.767Z,7.73
2022-12-22T17:10:46.056Z,7.76
2022-12-22T17:13:18.609Z,7.77
2022-12-22T17:15:56.651Z,7.80
2022-12-22T17:18:32.174Z,7.82
2022-12-22T17:21:04.407Z,7.83
2022-12-22T17:24:05.400Z,7.86
2022-12-22T17:26:38.590Z,7.88
2022-12-22T17:29:23.646Z,7.88
2022-12-22T17:32:11.012Z,7.89
2022-12-22T17:34:42.385Z,7.90
2022-12-22T17:37:23.398Z,7.92
2022-12-22T17:40:02.220Z,7.93
2022-12-22T17:42:45.871Z,7.94
2022-12-22T17:45:33.500Z,7.94
2022-12-22T17:48:05.357Z,7.92
2022-12-22T17:50:38.472Z,7.92
2022-12-22T17:53:26.827Z,7.90
2022-12-22T17:56:09.042Z,7.89
2022-12-22T17:58:46.873Z,7.89
2022-12-22T18:01:30.366Z,7.88
2022-12-22T18:04:02.171Z,7.88
2022-12-22T18:06:39.813Z,7.88
2022-12-22T18:09:23.077Z,7.87
2022-12-22T18:29:44.705Z,8.22
2022-12-22T18:32:31.795Z,8.15
2022-12-22T18:35:05.839Z,8.09
2022-12-22T18:57:50.309Z,7.76
2022-12-22T19:00:52.399Z,7.75
2022-12-22T19:03:35.302Z,7.75
2022-12-22T19:09:30.036Z,7.72
2022-12-22T19:12:21.815Z,7.71
2022-12-22T19:15:01.200Z,7.72
2022-12-22T19:17:35.237Z,7.71
2022-12-22T19:20:28.728Z,7.70
2022-12-22T19:23:18.996Z,7.67
2022-12-22T19:26:12.305Z,7.64
2022-12-22T19:30:32.357Z,7.63
2022-12-22T19:33:04.227Z,7.58
2022-12-22T19:35:39.944Z,7.57
2022-12-22T19:38:30.805Z,7.56
2022-12-22T19:41:07.962Z,7.53
2022-12-22T19:43:49.182Z,7.52
2022-12-22T19:46:46.933Z,7.51
2022-12-22T19:52:15.961Z,7.50
2022-12-22T19:54:52.171Z,7.52
2022-12-22T19:57:22.708Z,7.53
2022-12-22T19:59:58.892Z,7.56
2022-12-22T20:02:57.653Z,7.58
2022-12-22T20:05:42.273Z,7.59
2022-12-22T20:08:11.746Z,7.60
2022-12-22T20:10:45.538Z,7.62
2022-12-22T20:13:31.175Z,7.64
2022-12-22T20:16:18.900Z,7.64
2022-12-22T20:19:02.391Z,7.65
2022-12-22T20:21:35.168Z,7.66
2022-12-22T20:24:23.940Z,7.65
2022-12-22T20:27:08.511Z,7.63
2022-12-22T20:29:42.627Z,7.63
2022-12-22T20:32:31.581Z,7.60
2022-12-22T20:35:02.852Z,7.60
2022-12-22T20:37:42.441Z,7.58
2022-12-22T20:40:34.222Z,7.53
2022-12-22T20:43:18.474Z,7.47
2022-12-22T20:45:52.274Z,7.43
2022-12-22T20:48:34.092Z,7.40
2022-12-22T20:51:12.264Z,7.39
2022-12-22T20:53:51.913Z,7.37
2022-12-22T20:56:29.291Z,7.37
2022-12-22T20:59:01.359Z,7.39
2022-12-22T21:01:32.449Z,7.39
2022-12-22T21:04:04.867Z,7.40
2022-12-22T21:06:46.683Z,7.41
2022-12-22T21:09:21.912Z,7.43
2022-12-22T21:12:08.659Z,7.43
2022-12-22T21:14:40.454Z,7.44
2022-12-22T21:17:18.245Z,7.47
2022-12-22T21:19:46.817Z,7.47
2022-12-22T21:22:16.602Z,7.50
2022-12-22T21:24:45.594Z,7.49
2022-12-22T21:27:21.130Z,7.50
2022-12-22T21:30:33.708Z,7.50
2022-12-22T21:33:11.067Z,7.51
2022-12-22T21:35:44.479Z,7.52
2022-12-22T21:38:23.185Z,7.53
2022-12-22T21:41:45.139Z,7.53
2022-12-22T21:44:18.383Z,7.54
2022-12-22T21:46:48.647Z,7.53
2022-12-22T21:49:29.426Z,7.54
2022-12-22T21:52:03.160Z,7.53
2022-12-22T21:54:32.620Z,7.52
2022-12-22T21:57:02.310Z,7.46
2022-12-22T21:59:31.132Z,7.41
2022-12-22T22:02:22.277Z,7.33
2022-12-22T22:04:55.049Z,7.26
2022-12-22T22:08:00.802Z,7.20
2022-12-22T22:10:35.301Z,7.12
2022-12-22T22:13:10.870Z,7.07
2022-12-22T22:15:44.429Z,7.07
2022-12-22T22:18:20.357Z,7.10
2022-12-22T22:20:53.131Z,7.12
2022-12-22T22:23:22.996Z,7.14
2022-12-22T22:25:57.601Z,7.13
2022-12-22T22:28:26.249Z,7.16
2022-12-22T22:30:55.638Z,7.14
2022-12-22T22:33:23.923Z,7.13
2022-12-22T22:35:58.052Z,7.15
2022-12-22T22:38:33.930Z,7.14
2022-12-22T22:41:03.709Z,7.11
2022-12-22T22:43:41.564Z,7.09
2022-12-22T22:46:10.040Z,7.06
2022-12-22T22:48:38.220Z,7.04
2022-12-22T22:51:13.202Z,7.01
2022-12-22T22:53:41.628Z,6.97
2022-12-22T22:56:10.304Z,6.91
2022-12-22T22:58:38.426Z,6.87
2022-12-22T23:01:08.779Z,6.83
2022-12-22T23:03:37.829Z,6.79
2022-12-22T23:06:08.191Z,6.75
2022-12-22T23:08:38.112Z,6.69
2022-12-22T23:11:12.532Z,6.65
2022-12-22T23:13:40.891Z,6.61
2022-12-22T23:16:09.723Z,6.55
2022-12-22T23:18:38.185Z,6.49
2022-12-22T23:21:09.889Z,6.46
2022-12-22T23:23:39.010Z,6.42
2022-12-22T23:26:07.379Z,6.33
2022-12-22T23:28:36.348Z,6.24
2022-12-22T23:31:04.915Z,6.17
2022-12-22T23:33:33.153Z,6.11
2022-12-22T23:36:04.093Z,6.05
2022-12-22T23:38:32.514Z,5.98
2022-12-22T23:41:04.675Z,5.91
2022-12-22T23:43:32.957Z,5.78
2022-12-22T23:46:04.732Z,5.67
2022-12-22T23:48:32.504Z,5.58
2022-12-22T23:51:00.704Z,5.51
2022-12-22T23:53:29.076Z,5.43
2022-12-22T23:56:01.643Z,5.37
2022-12-22T23:58:29.667Z,5.33
